Time;durP1;ratioP1;P1;durP2;ratioP2;P2;SDS_P1;SDS_P2;PMS_P1;PMS_P2;Temp;Humidity;BMP_temperature;BMP_pressure;BME280_temperature;BME280_humidity;BME280_pressure;Samples;Min_cycle;Max_cycle;Signal;HPM_P1;HPM_P2
2023/08/28 00:00:33;;;;;;;5.88;2.13;;;12.90;99.90;;;;;;5140353;27;20278;-66
2023/08/28 00:02:58;;;;;;;3.70;1.90;;;12.90;99.90;;;;;;5143754;27;20077;-70
2023/08/28 00:05:24;;;;;;;5.65;1.85;;;12.90;99.90;;;;;;5144303;27;20074;-69
2023/08/28 00:07:50;;;;;;;3.63;1.77;;;12.90;99.90;;;;;;5143328;27;20034;-67
2023/08/28 00:10:15;;;;;;;4.05;1.73;;;12.90;99.90;;;;;;5144491;27;20111;-68
2023/08/28 00:12:42;;;;;;;5.03;2.22;;;12.80;99.90;;;;;;5144837;27;20038;-67
2023/08/28 00:15:08;;;;;;;6.38;2.30;;;12.90;99.90;;;;;;5142647;27;20058;-70
2023/08/28 00:17:34;;;;;;;5.50;2.00;;;12.80;99.90;;;;;;5148019;27;20050;-67
2023/08/28 00:19:59;;;;;;;8.15;1.58;;;12.80;99.90;;;;;;5143316;27;20034;-66
2023/08/28 00:22:25;;;;;;;6.72;1.73;;;13.10;99.90;;;;;;5143124;27;20685;-70
2023/08/28 00:24:51;;;;;;;4.70;2.05;;;12.70;99.90;;;;;;5143754;27;20070;-71
2023/08/28 00:27:16;;;;;;;3.47;1.90;;;12.70;99.90;;;;;;5141929;27;20058;-68
2023/08/28 00:29:42;;;;;;;4.43;1.92;;;12.70;99.90;;;;;;5143441;27;20451;-66
2023/08/28 00:32:08;;;;;;;3.22;1.92;;;12.70;99.90;;;;;;5143598;27;20559;-67
2023/08/28 00:34:33;;;;;;;7.35;1.90;;;13.00;99.90;;;;;;5141257;27;20094;-66
2023/08/28 00:36:59;;;;;;;5.72;1.48;;;12.60;99.90;;;;;;5126299;27;20132;-70
2023/08/28 00:39:24;;;;;;;3.58;1.52;;;12.60;99.90;;;;;;5143668;27;20047;-66
2023/08/28 00:41:50;;;;;;;6.82;1.58;;;12.60;99.90;;;;;;5141042;27;20050;-67
2023/08/28 00:44:15;;;;;;;4.65;1.85;;;12.60;99.90;;;;;;5146395;27;20473;-68
2023/08/28 00:46:41;;;;;;;5.53;1.90;;;12.60;99.90;;;;;;5123249;27;20043;-66
2023/08/28 00:49:08;;;;;;;7.63;1.85;;;12.60;99.90;;;;;;5141038;27;20050;-67
2023/08/28 00:51:34;;;;;;;3.75;1.80;;;12.50;99.90;;;;;;5147747;27;20039;-66
2023/08/28 00:54:01;;;;;;;4.20;1.60;;;12.50;99.90;;;;;;5141793;27;20397;-65
2023/08/28 00:56:27;;;;;;;3.95;1.85;;;12.40;99.90;;;;;;5142869;27;20075;-66
2023/08/28 00:58:53;;;;;;;5.38;1.60;;;12.50;99.90;;;;;;5129027;27;20059;-67
2023/08/28 01:01:18;;;;;;;4.35;1.00;;;12.40;99.90;;;;;;5141906;27;20660;-66
2023/08/28 01:03:44;;;;;;;3.80;1.60;;;12.40;99.90;;;;;;5144990;27;20610;-67
2023/08/28 01:06:28;;;;;;;3.33;1.35;;;12.40;99.90;;;;;;5146149;27;20122;-66
2023/08/28 01:09:19;;;;;;;4.30;1.40;;;12.40;99.90;;;;;;5148880;27;20039;-66
2023/08/28 01:12:09;;;;;;;6.43;1.48;;;12.40;99.90;;;;;;5151096;27;20118;-66
2023/08/28 01:14:52;;;;;;;3.45;1.20;;;12.30;99.90;;;;;;5149182;27;20043;-66
2023/08/28 01:17:21;;;;;;;4.97;1.48;;;12.50;99.90;;;;;;5149012;27;20047;-67
2023/08/28 01:19:47;;;;;;;4.18;1.63;;;12.40;99.90;;;;;;5152020;27;20146;-69
2023/08/28 01:22:37;;;;;;;4.25;1.20;;;12.30;99.90;;;;;;5152206;27;20042;-66
2023/08/28 01:25:09;;;;;;;3.42;1.27;;;12.40;99.90;;;;;;5149733;27;20043;-70
2023/08/28 01:27:40;;;;;;;4.45;1.33;;;12.30;99.90;;;;;;5150226;27;20042;-65
2023/08/28 01:30:10;;;;;;;4.53;1.10;;;12.30;99.90;;;;;;5149832;27;20532;-67
2023/08/28 01:32:36;;;;;;;4.82;1.33;;;12.30;99.90;;;;;;5153984;27;20489;-65
2023/08/28 01:35:07;;;;;;;2.63;1.00;;;12.40;99.90;;;;;;5152847;27;20046;-67
2023/08/28 01:37:56;;;;;;;2.78;1.17;;;12.30;99.90;;;;;;5154440;27;20043;-66
2023/08/28 01:40:36;;;;;;;4.80;1.35;;;12.20;99.90;;;;;;5052243;28;20099;-67
2023/08/28 01:43:06;;;;;;;3.05;1.30;;;12.30;99.90;;;;;;5052036;28;20087;-68
2023/08/28 01:45:32;;;;;;;2.30;1.00;;;12.20;99.90;;;;;;5052372;28;20061;-67
2023/08/28 01:47:58;;;;;;;4.65;1.33;;;12.20;99.90;;;;;;5056981;28;20047;-70
2023/08/28 01:50:24;;;;;;;3.13;1.38;;;12.10;99.90;;;;;;5052643;28;20519;-66
2023/08/28 01:52:50;;;;;;;4.68;1.35;;;12.10;99.90;;;;;;5051723;28;20057;-65
2023/08/28 01:55:15;;;;;;;3.60;1.30;;;12.10;99.90;;;;;;5051567;28;20472;-67
2023/08/28 01:57:41;;;;;;;3.97;1.27;;;12.00;99.90;;;;;;5052394;28;20470;-68
2023/08/28 02:00:07;;;;;;;2.40;1.40;;;12.00;99.90;;;;;;5035525;28;20124;-67
2023/08/28 02:02:33;;;;;;;4.50;1.42;;;12.00;99.90;;;;;;5033099;28;20056;-66
2023/08/28 02:04:58;;;;;;;3.90;1.33;;;12.10;99.90;;;;;;5051362;28;20053;-68
2023/08/28 02:07:24;;;;;;;2.10;1.27;;;12.00;99.90;;;;;;5051879;28;20089;-68
2023/08/28 02:09:49;;;;;;;3.15;1.23;;;12.00;99.90;;;;;;5055106;28;20503;-66
2023/08/28 02:12:15;;;;;;;4.38;1.90;;;12.20;99.90;;;;;;5057084;28;20059;-67
2023/08/28 02:14:41;;;;;;;3.17;1.40;;;12.00;99.90;;;;;;5051511;28;20154;-67
2023/08/28 02:17:06;;;;;;;5.18;1.55;;;11.90;99.90;;;;;;5052577;28;20157;-67
2023/08/28 02:19:32;;;;;;;3.22;1.30;;;12.10;99.90;;;;;;5112589;28;20119;-68
2023/08/28 02:21:57;;;;;;;2.75;1.23;;;11.90;99.90;;;;;;5097618;28;20032;-68
2023/08/28 02:24:23;;;;;;;5.45;1.38;;;11.80;99.90;;;;;;5100036;28;20500;-69
2023/08/28 02:26:50;;;;;;;4.75;1.48;;;11.80;99.90;;;;;;5110676;28;20044;-68
2023/08/28 02:29:15;;;;;;;4.05;1.50;;;11.80;99.90;;;;;;5103308;28;20380;-68
2023/08/28 02:31:41;;;;;;;4.35;1.50;;;11.70;99.90;;;;;;5108320;28;20051;-70
2023/08/28 02:34:07;;;;;;;4.35;2.20;;;11.60;99.90;;;;;;5104657;28;20059;-67
2023/08/28 02:36:32;;;;;;;2.90;1.20;;;11.60;99.90;;;;;;5102032;28;20181;-69
2023/08/28 02:38:59;;;;;;;5.25;1.48;;;11.80;99.90;;;;;;5104637;28;20044;-66
2023/08/28 02:41:24;;;;;;;2.20;1.42;;;11.80;99.90;;;;;;5119486;27;20051;-70
2023/08/28 02:43:50;;;;;;;4.32;1.40;;;11.50;99.90;;;;;;5101291;28;20128;-67
2023/08/28 02:46:15;;;;;;;5.05;1.30;;;11.50;99.90;;;;;;5101528;28;20072;-69
2023/08/28 02:48:41;;;;;;;4.68;1.67;;;11.40;99.90;;;;;;5105369;28;20535;-70
2023/08/28 02:51:07;;;;;;;2.83;1.70;;;11.40;99.90;;;;;;5101903;28;20051;-69
2023/08/28 02:53:33;;;;;;;5.15;1.90;;;11.40;99.90;;;;;;5103410;28;20077;-67
2023/08/28 02:56:17;;;;;;;5.50;2.20;;;11.30;99.90;;;;;;5105498;28;20040;-67
2023/08/28 02:58:43;;;;;;;4.00;1.90;;;11.40;99.90;;;;;;5107738;28;20138;-67
2023/08/28 03:01:09;;;;;;;4.22;2.10;;;11.30;99.90;;;;;;5104584;28;20456;-67
2023/08/28 03:03:34;;;;;;;4.18;1.88;;;11.50;99.90;;;;;;5103152;28;20048;-68
2023/08/28 03:06:01;;;;;;;5.53;1.70;;;11.30;99.90;;;;;;5101513;28;20047;-68
2023/08/28 03:08:28;;;;;;;5.60;2.00;;;11.30;99.90;;;;;;5106398;28;20063;-70
2023/08/28 03:10:54;;;;;;;8.65;2.35;;;11.30;99.90;;;;;;5102709;28;20039;-68
2023/08/28 03:13:19;;;;;;;6.10;2.35;;;11.30;99.90;;;;;;5099841;28;20176;-69
2023/08/28 03:15:45;;;;;;;5.35;2.38;;;11.30;99.90;;;;;;5114265;27;20059;-69
2023/08/28 03:18:11;;;;;;;6.72;2.50;;;11.30;99.90;;;;;;5150938;27;20157;-67
2023/08/28 03:20:36;;;;;;;5.43;2.33;;;11.60;99.90;;;;;;5144103;27;20070;-69
2023/08/28 03:23:02;;;;;;;5.20;2.53;;;11.50;99.90;;;;;;5144361;27;20042;-72
2023/08/28 03:25:28;;;;;;;5.85;2.30;;;11.40;99.90;;;;;;5147886;27;20095;-70
2023/08/28 03:27:54;;;;;;;6.35;2.90;;;11.50;99.90;;;;;;5142075;27;20397;-70
2023/08/28 03:30:20;;;;;;;3.60;2.63;;;11.50;99.90;;;;;;5149754;27;20130;-67
2023/08/28 03:32:45;;;;;;;6.00;2.60;;;11.50;99.90;;;;;;5146203;27;20031;-67
2023/08/28 03:35:11;;;;;;;4.28;2.88;;;11.70;99.90;;;;;;5129066;27;20442;-68
2023/08/28 03:37:37;;;;;;;7.03;3.13;;;11.60;99.90;;;;;;5147428;27;20083;-67
2023/08/28 03:40:04;;;;;;;5.93;3.00;;;11.70;99.90;;;;;;5128916;27;20089;-67
2023/08/28 03:42:29;;;;;;;5.63;2.88;;;11.70;99.90;;;;;;5145339;27;20038;-68
2023/08/28 03:44:55;;;;;;;8.98;3.17;;;11.70;99.90;;;;;;5129220;27;20560;-67
2023/08/28 03:47:20;;;;;;;7.40;3.20;;;11.70;99.90;;;;;;5148936;27;20105;-67
2023/08/28 03:49:46;;;;;;;4.10;2.88;;;11.80;99.90;;;;;;5147105;27;20042;-67
2023/08/28 03:52:12;;;;;;;4.93;2.60;;;11.80;99.90;;;;;;5149752;27;20094;-67
2023/08/28 03:54:37;;;;;;;5.07;3.20;;;11.80;99.90;;;;;;5124743;27;20076;-67
2023/08/28 03:57:03;;;;;;;4.90;3.40;;;11.90;99.90;;;;;;5141501;27;20051;-67
2023/08/28 03:59:29;;;;;;;9.93;2.88;;;11.80;99.90;;;;;;5149929;27;20039;-67
2023/08/28 04:01:54;;;;;;;5.57;2.63;;;11.80;99.90;;;;;;5148104;27;20777;-67
2023/08/28 04:04:20;;;;;;;7.72;3.13;;;11.80;99.90;;;;;;5143135;27;20039;-68
2023/08/28 04:06:46;;;;;;;5.30;2.88;;;11.80;99.90;;;;;;5123924;27;20042;-67
2023/08/28 04:09:13;;;;;;;6.47;2.97;;;11.90;99.90;;;;;;5141395;27;20073;-67
2023/08/28 04:11:38;;;;;;;5.75;3.00;;;11.80;99.90;;;;;;5150987;27;20070;-65
2023/08/28 04:14:04;;;;;;;9.32;3.10;;;11.90;99.90;;;;;;5140813;27;20074;-67
2023/08/28 04:16:29;;;;;;;4.45;2.88;;;11.80;99.90;;;;;;5131333;27;20405;-66
2023/08/28 04:18:55;;;;;;;4.63;3.30;;;11.80;99.90;;;;;;5139406;27;20058;-66
2023/08/28 04:21:21;;;;;;;7.78;3.55;;;11.90;99.90;;;;;;5123669;27;20058;-67
2023/08/28 04:23:46;;;;;;;4.97;3.60;;;11.80;99.90;;;;;;5150737;27;20710;-67
2023/08/28 04:26:12;;;;;;;8.18;3.20;;;11.90;99.90;;;;;;5149387;27;20050;-66
2023/08/28 04:28:38;;;;;;;6.40;4.10;;;11.90;99.90;;;;;;5140003;27;20046;-68
2023/08/28 04:31:03;;;;;;;7.75;3.38;;;11.90;99.90;;;;;;5139927;27;20086;-67
2023/08/28 04:33:30;;;;;;;5.60;2.90;;;11.80;99.90;;;;;;5144755;27;20041;-66
2023/08/28 04:35:56;;;;;;;7.45;3.58;;;12.00;99.90;;;;;;5143194;27;20047;-67
2023/08/28 04:38:23;;;;;;;7.15;3.13;;;11.80;99.90;;;;;;5142207;27;20042;-68
2023/08/28 04:40:48;;;;;;;5.88;3.20;;;11.80;99.90;;;;;;5121621;27;20053;-67
2023/08/28 04:43:14;;;;;;;5.53;3.10;;;11.80;99.90;;;;;;5140198;27;20051;-67
2023/08/28 04:45:40;;;;;;;6.45;3.35;;;11.80;99.90;;;;;;5142827;27;20130;-67
2023/08/28 04:48:05;;;;;;;4.55;3.00;;;11.80;99.90;;;;;;5144342;27;20750;-68
2023/08/28 04:50:31;;;;;;;4.35;2.47;;;11.80;99.90;;;;;;5144029;27;20049;-66
2023/08/28 04:52:57;;;;;;;6.63;3.33;;;11.70;99.90;;;;;;5141436;27;20065;-66
2023/08/28 04:55:22;;;;;;;7.13;3.17;;;11.80;99.90;;;;;;5127723;27;20481;-66
2023/08/28 04:57:48;;;;;;;6.80;2.83;;;11.70;99.90;;;;;;5142391;27;20142;-67
2023/08/28 05:00:14;;;;;;;4.90;2.90;;;11.70;99.90;;;;;;5145322;27;20390;-66
2023/08/28 05:02:40;;;;;;;4.53;3.10;;;11.70;99.90;;;;;;5145346;27;20046;-66
2023/08/28 05:05:06;;;;;;;4.60;3.28;;;11.60;99.90;;;;;;5142399;27;20459;-67
2023/08/28 05:07:32;;;;;;;5.75;3.17;;;11.60;99.90;;;;;;5143735;27;20054;-67
2023/08/28 05:09:57;;;;;;;7.15;2.90;;;11.60;99.90;;;;;;5141517;27;20042;-66
2023/08/28 05:12:23;;;;;;;6.40;3.22;;;11.60;99.90;;;;;;5146376;27;20434;-65
2023/08/28 05:14:49;;;;;;;6.85;4.50;;;11.70;99.90;;;;;;5143987;27;20065;-68
2023/08/28 05:17:14;;;;;;;5.90;3.90;;;11.70;99.90;;;;;;5146327;27;20051;-68
2023/08/28 05:19:40;;;;;;;7.88;4.05;;;11.70;99.90;;;;;;5146784;27;20496;-68
2023/08/28 05:22:05;;;;;;;5.38;3.40;;;11.80;99.90;;;;;;5147101;27;20042;-69
2023/08/28 05:24:31;;;;;;;6.30;3.00;;;11.70;99.90;;;;;;5144111;27;20389;-69
2023/08/28 05:26:57;;;;;;;6.78;3.65;;;12.00;99.90;;;;;;5146812;27;20039;-68
2023/08/28 05:29:22;;;;;;;5.18;3.53;;;11.90;99.90;;;;;;5146489;27;20043;-67
2023/08/28 05:31:48;;;;;;;4.43;3.75;;;12.10;99.90;;;;;;5146823;27;20046;-70
2023/08/28 05:34:14;;;;;;;8.93;4.13;;;11.90;99.90;;;;;;5148438;27;20397;-69
2023/08/28 05:36:39;;;;;;;5.80;3.65;;;11.90;99.90;;;;;;5148825;27;20058;-67
2023/08/28 05:39:05;;;;;;;4.65;3.17;;;12.00;99.90;;;;;;5147214;27;20045;-66
2023/08/28 05:41:30;;;;;;;8.80;4.57;;;12.00;99.90;;;;;;5149375;27;20101;-66
2023/08/28 05:43:56;;;;;;;6.75;4.00;;;12.00;99.90;;;;;;5141479;27;20524;-67
2023/08/28 05:46:22;;;;;;;5.35;3.60;;;12.10;99.90;;;;;;5147972;27;20584;-66
2023/08/28 05:48:47;;;;;;;4.82;3.13;;;12.10;99.90;;;;;;5148597;27;20050;-67
2023/08/28 05:51:13;;;;;;;6.72;3.10;;;12.10;99.90;;;;;;5149362;27;20401;-68
2023/08/28 05:53:38;;;;;;;4.32;3.60;;;12.20;99.90;;;;;;5140723;27;20043;-67
2023/08/28 05:56:04;;;;;;;6.97;3.58;;;12.40;99.90;;;;;;5145127;27;20046;-67
2023/08/28 05:58:30;;;;;;;7.53;3.85;;;12.50;99.90;;;;;;5152704;27;20042;-66
2023/08/28 06:00:55;;;;;;;5.07;3.20;;;12.30;99.90;;;;;;5143315;27;20412;-66
2023/08/28 06:03:21;;;;;;;7.13;3.53;;;12.40;99.90;;;;;;5142683;27;20035;-66
2023/08/28 06:05:46;;;;;;;6.15;3.92;;;12.50;99.90;;;;;;5143746;27;20046;-67
2023/08/28 06:08:12;;;;;;;6.20;4.05;;;12.50;99.90;;;;;;5150734;27;20046;-66
2023/08/28 06:10:40;;;;;;;6.95;4.18;;;12.60;99.90;;;;;;5146697;27;20035;-67
2023/08/28 06:13:06;;;;;;;8.00;3.80;;;12.60;99.90;;;;;;5146095;27;20409;-68
2023/08/28 06:15:32;;;;;;;7.30;3.72;;;12.70;99.90;;;;;;5146868;27;20099;-66
2023/08/28 06:17:58;;;;;;;6.35;3.70;;;12.80;99.90;;;;;;5144832;27;20405;-66
2023/08/28 06:20:23;;;;;;;6.15;3.80;;;12.80;99.90;;;;;;5148258;27;20129;-67
2023/08/28 06:22:49;;;;;;;4.78;3.38;;;12.90;99.90;;;;;;5128366;27;20112;-65
2023/08/28 06:25:15;;;;;;;7.88;3.42;;;12.90;99.90;;;;;;5146560;27;20042;-67
2023/08/28 06:27:40;;;;;;;5.53;3.08;;;13.00;99.90;;;;;;5125262;27;20054;-66
2023/08/28 06:30:07;;;;;;;4.97;3.15;;;13.10;99.90;;;;;;5131962;27;20098;-66
2023/08/28 06:32:33;;;;;;;7.05;3.22;;;13.10;99.90;;;;;;5145686;27;20035;-66
2023/08/28 06:34:59;;;;;;;7.47;3.13;;;13.20;99.90;;;;;;5145314;27;20523;-66
2023/08/28 06:37:25;;;;;;;6.22;3.28;;;13.30;99.90;;;;;;5147972;27;20119;-67
2023/08/28 06:39:52;;;;;;;9.73;3.50;;;13.40;99.90;;;;;;5145944;27;20127;-65
2023/08/28 06:42:17;;;;;;;7.65;3.70;;;13.50;99.90;;;;;;5148249;27;20035;-67
2023/08/28 06:44:43;;;;;;;8.70;3.30;;;13.50;99.90;;;;;;5149340;27;20050;-67
2023/08/28 06:47:09;;;;;;;5.18;3.10;;;13.60;99.90;;;;;;5148883;27;20426;-67
2023/08/28 06:49:34;;;;;;;5.82;3.40;;;13.70;99.90;;;;;;5130144;27;20114;-66
2023/08/28 06:52:02;;;;;;;5.30;3.63;;;13.70;99.90;;;;;;5147120;27;20070;-66
2023/08/28 06:54:27;;;;;;;8.32;3.58;;;13.80;99.90;;;;;;5144572;27;20497;-67
2023/08/28 06:56:53;;;;;;;7.45;3.20;;;13.90;99.90;;;;;;5152280;27;20115;-66
2023/08/28 06:59:19;;;;;;;6.05;3.28;;;14.00;99.90;;;;;;5130720;27;20405;-66
2023/08/28 07:01:45;;;;;;;5.13;3.20;;;14.10;99.90;;;;;;5146844;27;20106;-67
2023/08/28 07:04:10;;;;;;;8.30;3.40;;;14.20;99.90;;;;;;5150020;27;20521;-68
2023/08/28 07:06:36;;;;;;;7.00;3.75;;;14.30;99.90;;;;;;5124416;27;20133;-68
2023/08/28 07:09:02;;;;;;;7.32;3.53;;;14.40;99.90;;;;;;5144651;27;20436;-67
2023/08/28 07:11:28;;;;;;;5.82;3.00;;;14.50;99.90;;;;;;5144691;27;20038;-67
2023/08/28 07:13:56;;;;;;;8.10;3.92;;;14.60;99.90;;;;;;5144735;27;20473;-67
2023/08/28 07:16:22;;;;;;;6.43;3.50;;;14.70;99.90;;;;;;5141278;27;20062;-67
2023/08/28 07:18:48;;;;;;;6.15;3.38;;;14.80;99.90;;;;;;5141153;27;20051;-67
2023/08/28 07:21:13;;;;;;;7.28;3.35;;;14.90;99.90;;;;;;5123269;27;20082;-66
2023/08/28 07:23:39;;;;;;;7.93;3.50;;;15.00;99.90;;;;;;5144450;27;20043;-66
2023/08/28 07:26:06;;;;;;;10.40;3.70;;;15.10;99.90;;;;;;5144393;27;20134;-66
2023/08/28 07:28:31;;;;;;;7.13;3.90;;;15.20;99.90;;;;;;5141524;27;20047;-67
2023/08/28 07:30:57;;;;;;;5.68;3.53;;;15.30;99.90;;;;;;5140900;27;20039;-68
2023/08/28 07:33:23;;;;;;;8.32;3.50;;;15.40;99.90;;;;;;5122949;27;20055;-67
2023/08/28 07:35:49;;;;;;;3.70;2.70;;;15.50;99.90;;;;;;5144025;27;20431;-66
2023/08/28 07:38:15;;;;;;;9.85;3.28;;;15.60;99.90;;;;;;5136039;27;20043;-67
2023/08/28 07:40:41;;;;;;;9.05;3.17;;;15.70;99.90;;;;;;5142970;27;20410;-69
2023/08/28 07:43:07;;;;;;;7.60;3.28;;;15.80;99.90;;;;;;5143877;27;20038;-68
2023/08/28 07:45:32;;;;;;;7.95;3.35;;;15.90;99.90;;;;;;5143812;27;20031;-67
2023/08/28 07:47:59;;;;;;;7.60;2.33;;;16.00;99.90;;;;;;5141584;27;20039;-67
2023/08/28 07:50:28;;;;;;;7.05;3.03;;;16.10;99.90;;;;;;5142124;27;20567;-68
2023/08/28 07:52:53;;;;;;;3.85;2.22;;;16.30;99.90;;;;;;5147459;27;20074;-67
2023/08/28 07:55:19;;;;;;;7.78;2.40;;;16.40;99.90;;;;;;5141776;27;20081;-65
2023/08/28 07:57:45;;;;;;;7.80;2.38;;;16.50;99.90;;;;;;5145491;27;20046;-68
2023/08/28 08:00:13;;;;;;;5.18;1.98;;;16.60;99.90;;;;;;5127772;27;20092;-66
2023/08/28 08:02:40;;;;;;;3.75;1.20;;;16.70;99.90;;;;;;5144747;27;20074;-68
2023/08/28 08:05:07;;;;;;;5.00;1.25;;;16.90;99.90;;;;;;5143560;27;20062;-66
2023/08/28 08:07:33;;;;;;;6.28;1.50;;;17.10;99.90;;;;;;5142690;27;20042;-66
2023/08/28 08:09:58;;;;;;;5.75;1.50;;;17.20;99.90;;;;;;5142690;27;20507;-66
2023/08/28 08:12:26;;;;;;;6.10;1.13;;;17.40;99.90;;;;;;5147347;27;20122;-66
2023/08/28 08:14:52;;;;;;;4.70;1.10;;;17.50;99.90;;;;;;5147723;27;20050;-68
2023/08/28 08:17:18;;;;;;;6.25;1.17;;;17.80;99.90;;;;;;5147082;27;20099;-67
2023/08/28 08:19:44;;;;;;;5.25;1.20;;;18.00;99.90;;;;;;5146237;27;20034;-68
2023/08/28 08:22:10;;;;;;;4.28;1.20;;;18.20;99.90;;;;;;5148635;27;20038;-68
2023/08/28 08:24:36;;;;;;;3.72;1.23;;;18.30;99.90;;;;;;5147397;27;20046;-67
2023/08/28 08:27:01;;;;;;;5.30;1.20;;;18.50;99.90;;;;;;5143438;27;20038;-68
2023/08/28 08:29:27;;;;;;;8.18;1.10;;;18.90;99.90;;;;;;5140768;27;20381;-68
2023/08/28 08:31:53;;;;;;;3.85;0.80;;;19.10;99.90;;;;;;5122145;27;20062;-67
2023/08/28 08:34:18;;;;;;;2.35;0.77;;;19.40;99.90;;;;;;5143526;27;20114;-69
2023/08/28 08:36:44;;;;;;;3.53;0.75;;;19.60;99.90;;;;;;5147031;27;20035;-68
2023/08/28 08:39:10;;;;;;;3.30;0.68;;;19.60;99.90;;;;;;5146575;27;20041;-68
2023/08/28 08:41:38;;;;;;;5.10;0.65;;;19.80;99.90;;;;;;5141602;27;20771;-68
2023/08/28 08:44:04;;;;;;;3.83;0.88;;;20.00;99.90;;;;;;5127792;27;20158;-66
2023/08/28 08:46:30;;;;;;;6.63;0.90;;;20.10;99.90;;;;;;5147561;27;20739;-67
2023/08/28 08:48:59;;;;;;;2.20;0.60;;;20.40;99.90;;;;;;5146979;27;20030;-67
2023/08/28 08:51:29;;;;;;;2.63;0.60;;;20.70;99.90;;;;;;5148309;27;20035;-67
2023/08/28 08:54:07;;;;;;;4.22;0.70;;;20.50;99.90;;;;;;5126654;27;20053;-67
2023/08/28 08:56:35;;;;;;;3.25;0.60;;;20.40;99.90;;;;;;5145460;27;20035;-66
2023/08/28 08:59:01;;;;;;;2.80;0.40;;;20.40;99.90;;;;;;5146456;27;20047;-66
2023/08/28 09:01:28;;;;;;;2.95;0.55;;;20.40;99.90;;;;;;5149134;27;20081;-66
2023/08/28 09:03:57;;;;;;;1.30;0.50;;;20.50;99.90;;;;;;5148587;27;20557;-67
2023/08/28 09:06:25;;;;;;;6.03;0.60;;;20.80;99.90;;;;;;5149105;27;20088;-66
2023/08/28 09:08:51;;;;;;;3.35;0.70;;;21.00;99.90;;;;;;5149553;27;20039;-67
2023/08/28 09:11:17;;;;;;;3.42;1.08;;;21.00;99.90;;;;;;5148117;27;20079;-67
2023/08/28 09:13:42;;;;;;;2.13;0.60;;;21.30;99.90;;;;;;5150581;27;20054;-68
2023/08/28 09:16:08;;;;;;;5.25;0.73;;;21.40;99.90;;;;;;5141882;27;20095;-66
2023/08/28 09:18:34;;;;;;;2.83;0.98;;;21.80;99.90;;;;;;5145483;27;20051;-67
2023/08/28 09:21:11;;;;;;;2.85;0.70;;;21.90;99.90;;;;;;5146340;27;20039;-69
2023/08/28 09:23:44;;;;;;;3.90;0.57;;;21.90;99.90;;;;;;5142000;27;20111;-69
2023/08/28 09:26:28;;;;;;;1.58;0.30;;;21.90;99.90;;;;;;5150334;27;20043;-70
2023/08/28 09:29:05;;;;;;;2.95;0.52;;;21.60;99.90;;;;;;5139186;27;20043;-68
2023/08/28 09:31:39;;;;;;;1.60;0.30;;;21.40;99.90;;;;;;5154004;27;20046;-68
2023/08/28 09:34:05;;;;;;;;;;;21.30;99.90;;;;;;5147209;27;20039;-68
2023/08/28 09:36:35;;;;;;;2.28;0.80;;;21.20;99.90;;;;;;5144711;27;20273;-68
2023/08/28 09:39:03;;;;;;;1.60;0.65;;;20.90;99.90;;;;;;5148222;27;20401;-68
2023/08/28 09:41:49;;;;;;;1.40;0.40;;;20.70;99.90;;;;;;5144648;27;20049;-68
2023/08/28 09:44:21;;;;;;;3.97;0.68;;;20.20;99.90;;;;;;5143499;27;20051;-67
2023/08/28 09:46:49;;;;;;;2.58;0.77;;;20.10;99.90;;;;;;5150601;27;20420;-68
2023/08/28 09:49:14;;;;;;;1.48;0.50;;;20.00;99.90;;;;;;5149336;27;20074;-68
2023/08/28 09:51:43;;;;;;;2.53;0.50;;;20.00;99.90;;;;;;5145908;27;20115;-69
2023/08/28 09:54:10;;;;;;;3.35;0.70;;;20.00;99.90;;;;;;5143223;27;20486;-70
2023/08/28 09:56:37;;;;;;;2.47;0.40;;;20.00;99.90;;;;;;5149972;27;20466;-69
2023/08/28 09:59:03;;;;;;;2.88;0.60;;;19.80;99.90;;;;;;5139052;27;20039;-69
2023/08/28 10:01:36;;;;;;;3.78;0.60;;;19.90;99.90;;;;;;5140956;27;20039;-69
2023/08/28 10:04:06;;;;;;;2.47;0.65;;;19.90;99.90;;;;;;5143592;27;20145;-69
2023/08/28 10:06:49;;;;;;;2.72;0.77;;;19.90;99.90;;;;;;5121473;27;20489;-69
2023/08/28 10:09:18;;;;;;;2.80;0.63;;;19.90;99.90;;;;;;5153815;27;20487;-68
2023/08/28 10:11:45;;;;;;;4.97;0.40;;;20.00;99.90;;;;;;5134303;27;20591;-71
2023/08/28 10:14:12;;;;;;;3.60;0.68;;;20.00;99.90;;;;;;5143368;27;20035;-70
2023/08/28 10:16:50;;;;;;;1.55;0.43;;;20.10;99.90;;;;;;5134841;27;20490;-71
2023/08/28 10:19:16;;;;;;;2.85;0.40;;;20.10;99.90;;;;;;5141426;27;20138;-68
2023/08/28 10:21:42;;;;;;;1.33;0.38;;;20.00;99.90;;;;;;5139438;27;20420;-70
2023/08/28 10:24:09;;;;;;;3.45;0.60;;;20.10;99.90;;;;;;5136833;27;20149;-68
2023/08/28 10:26:35;;;;;;;2.70;0.63;;;20.10;99.90;;;;;;5148776;27;20043;-72
2023/08/28 10:29:03;;;;;;;6.07;0.60;;;20.10;99.90;;;;;;5147761;27;20424;-70
2023/08/28 10:31:30;;;;;;;3.70;0.52;;;20.10;99.90;;;;;;5136650;27;20043;-72
2023/08/28 10:33:56;;;;;;;1.42;0.40;;;20.20;99.90;;;;;;5149878;27;20038;-70
2023/08/28 10:36:24;;;;;;;2.88;0.50;;;20.20;99.90;;;;;;5152467;27;20039;-68
2023/08/28 10:38:52;;;;;;;4.20;0.80;;;20.20;99.90;;;;;;5145933;27;20034;-71
2023/08/28 10:41:19;;;;;;;4.18;0.65;;;20.20;99.90;;;;;;5151518;27;20053;-69
2023/08/28 10:43:50;;;;;;;3.63;0.55;;;20.20;99.90;;;;;;5142032;27;20439;-70
2023/08/28 10:46:16;;;;;;;3.15;0.40;;;20.20;99.90;;;;;;5147793;27;20078;-70
2023/08/28 10:48:45;;;;;;;2.97;0.70;;;20.20;99.90;;;;;;5143310;27;20054;-70
2023/08/28 10:51:12;;;;;;;4.15;0.65;;;20.20;99.90;;;;;;5123459;27;20107;-69
2023/08/28 10:53:39;;;;;;;2.42;0.70;;;20.20;99.90;;;;;;5149895;27;20042;-69
2023/08/28 10:56:05;;;;;;;2.92;0.63;;;20.30;99.90;;;;;;5126849;27;20052;-69
2023/08/28 10:58:36;;;;;;;2.15;0.60;;;20.40;99.90;;;;;;5152959;27;20568;-69
2023/08/28 11:01:18;;;;;;;1.50;0.60;;;20.40;99.90;;;;;;5143430;27;20126;-70
2023/08/28 11:03:58;;;;;;;3.15;0.68;;;20.50;99.90;;;;;;5126028;27;20434;-68
2023/08/28 11:06:36;;;;;;;4.78;0.70;;;20.40;99.90;;;;;;5141546;27;20039;-68
2023/08/28 11:09:30;;;;;;;2.75;0.50;;;20.40;99.90;;;;;;5143419;27;20104;-69
2023/08/28 11:12:01;;;;;;;3.83;0.55;;;20.40;99.90;;;;;;5130945;27;20130;-70
2023/08/28 11:14:33;;;;;;;2.20;0.52;;;20.30;99.90;;;;;;5144369;27;20583;-70
2023/08/28 11:17:10;;;;;;;1.85;0.52;;;20.30;99.90;;;;;;5144030;27;20040;-67
2023/08/28 11:22:35;;;;;;;3.78;0.60;;;20.20;99.90;;;;;;5141332;27;20045;-73
2023/08/28 11:25:09;;;;;;;1.95;0.50;;;20.20;99.90;;;;;;5141994;27;20488;-70
2023/08/28 11:27:56;;;;;;;3.58;0.90;;;20.30;99.90;;;;;;5140926;27;20373;-72
2023/08/28 11:30:22;;;;;;;1.52;0.50;;;20.20;99.90;;;;;;5144657;27;20485;-70
2023/08/28 11:32:51;;;;;;;2.97;0.60;;;20.30;99.90;;;;;;5143843;27;20050;-71
2023/08/28 11:35:17;;;;;;;1.70;0.50;;;20.30;99.90;;;;;;5147780;27;20049;-69
2023/08/28 11:37:51;;;;;;;2.05;0.40;;;20.30;99.90;;;;;;5146351;27;20046;-69
2023/08/28 11:40:24;;;;;;;1.70;0.60;;;20.40;99.90;;;;;;5127441;27;20059;-69
2023/08/28 11:43:03;;;;;;;2.70;0.50;;;20.60;99.90;;;;;;5146124;27;20488;-72
2023/08/28 11:45:29;;;;;;;2.55;0.70;;;20.60;99.90;;;;;;5141843;27;20230;-71
2023/08/28 11:47:59;;;;;;;3.17;0.75;;;20.70;99.90;;;;;;5144292;27;20049;-68
2023/08/28 11:50:26;;;;;;;0.80;0.40;;;20.60;99.90;;;;;;5151123;27;20167;-70
2023/08/28 11:52:52;;;;;;;1.75;0.68;;;20.70;99.90;;;;;;5144567;27;20111;-69
2023/08/28 11:55:19;;;;;;;3.03;0.50;;;20.80;99.90;;;;;;5145888;27;20536;-69
2023/08/28 11:57:45;;;;;;;1.25;0.35;;;21.30;99.90;;;;;;5145195;27;20049;-67
2023/08/28 12:00:14;;;;;;;1.95;0.60;;;21.60;99.90;;;;;;5144940;27;20397;-68
2023/08/28 12:02:42;;;;;;;2.05;0.88;;;21.80;99.90;;;;;;5142607;27;20066;-68
2023/08/28 12:05:08;;;;;;;3.58;0.70;;;22.00;99.90;;;;;;5140250;27;20126;-68
2023/08/28 12:07:34;;;;;;;1.92;0.60;;;22.00;99.90;;;;;;5148380;27;20409;-68
2023/08/28 12:10:00;;;;;;;2.65;0.60;;;22.30;99.90;;;;;;5141517;27;20039;-67
2023/08/28 12:12:26;;;;;;;2.85;0.60;;;22.40;99.90;;;;;;5140284;27;20051;-68
2023/08/28 12:14:53;;;;;;;3.17;0.65;;;22.80;99.90;;;;;;5121717;27;20122;-70
2023/08/28 12:17:22;;;;;;;3.58;0.90;;;22.80;99.90;;;;;;5142533;27;20070;-68
2023/08/28 12:19:50;;;;;;;4.68;1.30;;;22.60;99.90;;;;;;5143161;27;20155;-67
2023/08/28 12:22:16;;;;;;;1.92;0.75;;;22.40;99.90;;;;;;5140834;27;20146;-68
2023/08/28 12:24:44;;;;;;;6.00;0.90;;;22.10;99.90;;;;;;5139993;27;20121;-68
2023/08/28 12:27:11;;;;;;;1.95;0.60;;;22.10;99.90;;;;;;5149650;27;20035;-67
2023/08/28 12:29:37;;;;;;;3.17;0.52;;;21.90;99.90;;;;;;5140975;27;20038;-67
2023/08/28 12:32:06;;;;;;;5.03;1.00;;;21.90;99.90;;;;;;5144305;27;20552;-67
2023/08/28 12:34:33;;;;;;;3.90;0.90;;;21.90;99.90;;;;;;5143678;27;20099;-66
2023/08/28 12:37:11;;;;;;;3.25;0.77;;;21.80;99.90;;;;;;5144758;27;20043;-67
2023/08/28 12:39:47;;;;;;;2.72;0.60;;;21.80;99.90;;;;;;5143993;27;20042;-68
2023/08/28 12:42:14;;;;;;;2.58;0.50;;;21.70;99.90;;;;;;5144708;27;20538;-67
2023/08/28 12:44:42;;;;;;;1.85;0.50;;;21.70;99.90;;;;;;5138744;27;20050;-67
2023/08/28 12:47:09;;;;;;;2.13;0.60;;;21.80;99.90;;;;;;5144257;27;20053;-66
2023/08/28 12:49:34;;;;;;;2.08;0.38;;;21.80;99.90;;;;;;5141749;27;20043;-69
2023/08/28 12:52:01;;;;;;;2.15;0.52;;;22.20;99.90;;;;;;5145043;27;20071;-70